Time;durP1;ratioP1;P1;durP2;ratioP2;P2;SDS_P1;SDS_P2;PMS_P1;PMS_P2;Temp;Humidity;BMP_temperature;BMP_pressure;BME280_temperature;BME280_humidity;BME280_pressure;Samples;Min_cycle;Max_cycle;Signal;HPM_P1;HPM_P2
2023/12/13 00:00:37;;;;;;;3.30;1.13;;;7.00;99.90;;;;;;5074082;28;20760;-48
2023/12/13 00:03:06;;;;;;;6.23;1.70;;;7.00;99.90;;;;;;5056924;28;20157;-47
2023/12/13 00:05:31;;;;;;;2.90;1.07;;;7.00;99.90;;;;;;5074158;28;20176;-47
2023/12/13 00:08:03;;;;;;;3.03;0.80;;;7.00;99.90;;;;;;5073778;28;20194;-48
2023/12/13 00:10:28;;;;;;;4.53;0.83;;;6.90;99.90;;;;;;5074890;28;20210;-47
2023/12/13 00:12:57;;;;;;;5.07;1.07;;;6.90;99.90;;;;;;5074100;28;20538;-47
2023/12/13 00:15:25;;;;;;;3.10;0.97;;;6.90;99.90;;;;;;5074029;28;20179;-47
2023/12/13 00:18:25;;;;;;;4.53;1.00;;;6.90;99.90;;;;;;5074474;28;20171;-47
2023/12/13 00:20:51;;;;;;;6.17;1.30;;;7.00;99.90;;;;;;5074364;28;20231;-48
2023/12/13 00:23:19;;;;;;;5.03;1.50;;;7.00;99.90;;;;;;5073855;28;20180;-46
2023/12/13 00:25:45;;;;;;;7.23;1.20;;;7.10;99.90;;;;;;5074035;28;20183;-47
2023/12/13 00:28:11;;;;;;;5.83;1.40;;;7.10;99.90;;;;;;5074064;28;20270;-46
2023/12/13 00:30:45;;;;;;;9.00;1.23;;;7.10;99.90;;;;;;5073606;28;20623;-47
2023/12/13 00:33:16;;;;;;;3.90;1.43;;;7.10;99.90;;;;;;5073761;28;20175;-47
2023/12/13 00:35:41;;;;;;;4.50;1.50;;;7.10;99.90;;;;;;5073946;28;20176;-49
2023/12/13 00:38:11;;;;;;;5.13;1.10;;;7.20;99.90;;;;;;5073622;28;20183;-46
2023/12/13 00:40:36;;;;;;;3.77;1.00;;;7.20;99.90;;;;;;5073147;28;20702;-48
2023/12/13 00:43:05;;;;;;;5.73;1.73;;;7.20;99.90;;;;;;5074129;28;20217;-47
2023/12/13 00:45:33;;;;;;;5.43;1.00;;;7.10;99.90;;;;;;5073604;28;20576;-46
2023/12/13 00:48:01;;;;;;;5.10;1.50;;;7.20;99.90;;;;;;5072969;28;20198;-48
2023/12/13 00:50:26;;;;;;;3.60;1.17;;;7.20;99.90;;;;;;5073510;28;20234;-49
2023/12/13 00:52:52;;;;;;;6.07;1.43;;;7.20;99.90;;;;;;5074736;28;20176;-48
2023/12/13 00:55:20;;;;;;;6.90;1.50;;;7.20;99.90;;;;;;5074696;28;20515;-48
2023/12/13 00:57:49;;;;;;;2.73;1.13;;;7.20;99.90;;;;;;5074922;28;20233;-47
2023/12/13 01:00:15;;;;;;;2.63;1.27;;;7.20;99.90;;;;;;5074819;28;20227;-48
2023/12/13 01:02:51;;;;;;;5.83;1.40;;;7.10;99.90;;;;;;5056161;28;20305;-47
2023/12/13 01:05:17;;;;;;;4.73;1.30;;;7.10;99.90;;;;;;5073592;28;20244;-47
2023/12/13 01:07:43;;;;;;;7.83;1.77;;;7.00;99.90;;;;;;5073326;28;20262;-49
2023/12/13 01:10:12;;;;;;;6.37;1.50;;;7.00;99.90;;;;;;5073282;28;20223;-49
2023/12/13 01:12:44;;;;;;;10.03;1.40;;;7.00;99.90;;;;;;5073197;28;20255;-48
2023/12/13 01:15:10;;;;;;;2.53;0.93;;;7.00;99.90;;;;;;5074005;28;20574;-48
2023/12/13 01:17:36;;;;;;;2.33;1.10;;;7.10;99.90;;;;;;5073241;28;20671;-47
2023/12/13 01:20:09;;;;;;;4.30;1.47;;;7.10;99.90;;;;;;5077118;28;20215;-46
2023/12/13 01:22:35;;;;;;;5.00;1.43;;;7.10;99.90;;;;;;5059260;28;20189;-45
2023/12/13 01:25:01;;;;;;;5.63;1.60;;;7.20;99.90;;;;;;5077608;28;20174;-44
2023/12/13 01:27:27;;;;;;;7.63;1.37;;;7.20;99.90;;;;;;5077111;28;20175;-45
2023/12/13 01:29:54;;;;;;;6.00;1.50;;;7.30;99.90;;;;;;5077381;28;20561;-46
2023/12/13 01:32:21;;;;;;;3.70;1.10;;;7.40;99.90;;;;;;5077400;28;20202;-44
2023/12/13 01:34:47;;;;;;;2.30;1.00;;;7.40;99.90;;;;;;5077325;28;20176;-46
2023/12/13 01:37:13;;;;;;;6.57;1.10;;;7.40;99.90;;;;;;5077007;28;20178;-44
2023/12/13 01:39:42;;;;;;;4.97;1.00;;;7.50;99.90;;;;;;5076837;28;20207;-43
2023/12/13 01:42:08;;;;;;;3.97;1.07;;;7.50;99.90;;;;;;5077144;28;20180;-46
2023/12/13 01:44:34;;;;;;;7.57;1.50;;;7.50;99.90;;;;;;5077141;28;20317;-44
2023/12/13 01:47:01;;;;;;;4.13;1.10;;;7.50;99.90;;;;;;5076786;28;20258;-44
2023/12/13 01:49:27;;;;;;;11.43;1.27;;;7.50;99.90;;;;;;5076998;28;20204;-45
2023/12/13 01:51:56;;;;;;;8.60;1.73;;;7.50;99.90;;;;;;5077070;28;20259;-45
2023/12/13 01:54:23;;;;;;;5.80;1.10;;;7.50;99.90;;;;;;5077977;28;20540;-44
2023/12/13 02:00:15;;;;;;;7.97;1.50;;;7.50;99.90;;;;;;5076489;28;20636;-43
2023/12/13 02:02:49;;;;;;;4.57;1.30;;;7.50;99.90;;;;;;5076922;28;20165;-45
2023/12/13 02:05:20;;;;;;;11.20;1.40;;;7.50;99.90;;;;;;5077069;28;20656;-45
2023/12/13 02:07:51;;;;;;;5.93;1.60;;;7.50;99.90;;;;;;5076815;28;20279;-43
2023/12/13 02:10:17;;;;;;;11.47;2.27;;;7.50;99.90;;;;;;5076342;28;20200;-46
2023/12/13 02:12:43;;;;;;;7.10;1.63;;;7.50;99.90;;;;;;5058429;28;20184;-45
2023/12/13 02:15:12;;;;;;;10.33;1.90;;;7.60;99.90;;;;;;5076244;28;20181;-43
2023/12/13 02:17:51;;;;;;;7.60;1.60;;;7.60;99.90;;;;;;5076256;28;20182;-45
2023/12/13 02:20:19;;;;;;;8.43;1.67;;;7.70;99.90;;;;;;5058831;28;20828;-44
2023/12/13 02:22:45;;;;;;;10.53;2.37;;;7.70;99.90;;;;;;5058868;28;20160;-45
2023/12/13 02:25:40;;;;;;;9.40;1.93;;;7.70;99.90;;;;;;5076134;28;20209;-45
2023/12/13 02:28:13;;;;;;;10.53;2.10;;;7.80;99.90;;;;;;5057824;28;20176;-47
2023/12/13 02:30:41;;;;;;;15.53;1.80;;;7.80;99.90;;;;;;5075874;28;20290;-50
2023/12/13 02:33:09;;;;;;;10.90;1.83;;;7.80;99.90;;;;;;5076193;28;20176;-48
2023/12/13 02:35:34;;;;;;;7.17;1.80;;;7.80;99.90;;;;;;5057993;28;20176;-49
2023/12/13 02:38:00;;;;;;;13.03;1.93;;;7.80;99.90;;;;;;5075740;28;20232;-48
2023/12/13 02:40:26;;;;;;;12.33;1.90;;;7.80;99.90;;;;;;5057938;28;20360;-49
2023/12/13 02:42:52;;;;;;;11.37;2.30;;;7.80;99.90;;;;;;5075830;28;20191;-48
2023/12/13 02:45:25;;;;;;;11.97;2.33;;;7.80;99.90;;;;;;5057975;28;20173;-48
2023/12/13 02:47:52;;;;;;;8.30;1.97;;;7.80;99.90;;;;;;5076847;28;20168;-47
2023/12/13 02:50:21;;;;;;;17.37;2.10;;;7.80;99.90;;;;;;5075861;28;20234;-48
2023/12/13 02:52:52;;;;;;;8.50;2.00;;;7.80;99.90;;;;;;5058575;28;20183;-49
2023/12/13 02:55:18;;;;;;;10.07;2.07;;;7.90;99.90;;;;;;5075917;28;20188;-49
2023/12/13 02:57:43;;;;;;;9.60;1.67;;;7.90;99.90;;;;;;5057594;28;20253;-47
2023/12/13 03:00:13;;;;;;;13.37;1.97;;;7.90;99.90;;;;;;5057507;28;20211;-48
2023/12/13 03:02:48;;;;;;;12.27;2.17;;;7.90;99.90;;;;;;5075720;28;20176;-48
2023/12/13 03:05:14;;;;;;;16.53;2.27;;;8.00;99.90;;;;;;5075990;28;20217;-48
2023/12/13 03:07:43;;;;;;;13.97;2.20;;;8.00;99.90;;;;;;5057517;28;20199;-49
2023/12/13 03:10:09;;;;;;;11.80;2.10;;;8.00;99.90;;;;;;5057308;28;20688;-48
2023/12/13 03:12:35;;;;;;;15.37;2.47;;;8.00;99.90;;;;;;5075496;28;20206;-49
2023/12/13 03:15:01;;;;;;;11.00;1.83;;;8.10;99.90;;;;;;5075456;28;20294;-47
2023/12/13 03:17:27;;;;;;;18.80;2.20;;;8.10;99.90;;;;;;5075197;28;20180;-47
2023/12/13 03:19:52;;;;;;;10.27;2.30;;;8.10;99.90;;;;;;5075092;28;20232;-48
2023/12/13 03:22:21;;;;;;;17.80;2.30;;;8.20;99.90;;;;;;5057804;28;20689;-50
2023/12/13 03:24:47;;;;;;;6.93;1.70;;;8.10;99.90;;;;;;5074984;28;20210;-47
2023/12/13 03:27:14;;;;;;;10.63;1.83;;;8.10;99.90;;;;;;5075029;28;20203;-48
2023/12/13 03:29:40;;;;;;;11.07;2.40;;;8.20;99.90;;;;;;5057078;28;20208;-48
2023/12/13 03:32:06;;;;;;;14.57;2.67;;;8.20;99.90;;;;;;5074832;28;20188;-49
2023/12/13 03:34:35;;;;;;;8.10;2.30;;;8.20;99.90;;;;;;5056899;28;20237;-48
2023/12/13 03:37:02;;;;;;;12.00;2.00;;;8.20;99.90;;;;;;5075057;28;20583;-49
2023/12/13 03:39:33;;;;;;;8.00;2.83;;;8.20;99.90;;;;;;5069740;28;20224;-47
2023/12/13 03:41:59;;;;;;;14.13;2.20;;;8.30;99.90;;;;;;5073724;28;20193;-47
2023/12/13 03:44:28;;;;;;;8.17;2.73;;;8.30;99.90;;;;;;5075191;28;20340;-48
2023/12/13 03:46:54;;;;;;;10.43;2.03;;;8.30;99.90;;;;;;5056764;28;20222;-49
2023/12/13 03:49:20;;;;;;;12.17;2.00;;;8.30;99.90;;;;;;5056536;28;20232;-47
2023/12/13 03:51:48;;;;;;;18.17;3.07;;;8.20;99.90;;;;;;5074554;28;20212;-48
2023/12/13 03:54:17;;;;;;;11.60;2.37;;;8.30;99.90;;;;;;5075243;28;20529;-47
2023/12/13 03:56:43;;;;;;;10.60;2.30;;;8.30;99.90;;;;;;5074342;28;20180;-47
2023/12/13 03:59:08;;;;;;;13.87;2.33;;;8.30;99.90;;;;;;5074456;28;20222;-47
2023/12/13 04:01:34;;;;;;;13.43;2.33;;;8.20;99.90;;;;;;5074544;28;20246;-47
2023/12/13 04:04:00;;;;;;;11.80;2.43;;;8.20;99.90;;;;;;5056520;28;20737;-47
2023/12/13 04:06:32;;;;;;;18.07;2.43;;;8.20;99.90;;;;;;5056709;28;20183;-50
2023/12/13 04:09:01;;;;;;;16.70;2.23;;;8.20;99.90;;;;;;5056115;28;20223;-47
2023/12/13 04:11:26;;;;;;;13.23;2.50;;;8.20;99.90;;;;;;5074376;28;20183;-47
2023/12/13 04:13:52;;;;;;;9.27;2.43;;;8.20;99.90;;;;;;5056190;28;20640;-47
2023/12/13 04:16:18;;;;;;;9.03;2.43;;;8.20;99.90;;;;;;5056132;28;20176;-50
2023/12/13 04:18:43;;;;;;;15.23;2.60;;;8.20;99.90;;;;;;5056311;28;20240;-47
2023/12/13 04:21:10;;;;;;;11.37;2.30;;;8.20;99.90;;;;;;5055944;28;20640;-50
2023/12/13 04:23:36;;;;;;;13.83;2.20;;;8.10;99.90;;;;;;5074137;28;20172;-49
2023/12/13 04:26:02;;;;;;;11.63;2.70;;;8.20;99.90;;;;;;5056024;28;20263;-48
2023/12/13 04:28:29;;;;;;;10.27;2.27;;;8.20;99.90;;;;;;5055797;28;20287;-48
2023/12/13 04:31:02;;;;;;;16.47;2.53;;;8.20;99.90;;;;;;5074007;28;20436;-47
2023/12/13 04:34:03;;;;;;;14.20;2.43;;;8.20;99.90;;;;;;5055811;28;20195;-48
2023/12/13 04:36:32;;;;;;;10.80;2.10;;;8.20;99.90;;;;;;5073646;28;20192;-47
2023/12/13 04:38:57;;;;;;;17.03;2.60;;;8.20;99.90;;;;;;5073727;28;20213;-49
2023/12/13 04:41:26;;;;;;;20.20;2.93;;;8.20;99.90;;;;;;5073818;28;20628;-49
2023/12/13 04:43:52;;;;;;;14.63;2.37;;;8.20;99.90;;;;;;5073628;28;20589;-48
2023/12/13 04:46:17;;;;;;;9.60;2.33;;;8.20;99.90;;;;;;5073592;28;20181;-47
2023/12/13 04:48:43;;;;;;;18.50;3.00;;;8.20;99.90;;;;;;5055509;28;20232;-47
2023/12/13 04:51:12;;;;;;;5.90;1.73;;;8.20;99.90;;;;;;5073493;28;20263;-48
2023/12/13 04:53:41;;;;;;;10.57;2.20;;;8.20;99.90;;;;;;5072623;28;20190;-47
2023/12/13 04:56:08;;;;;;;11.03;2.50;;;8.20;99.90;;;;;;5055152;28;20185;-48
2023/12/13 04:58:34;;;;;;;17.03;2.30;;;8.10;99.90;;;;;;5073547;28;20188;-48
2023/12/13 05:01:01;;;;;;;11.53;2.37;;;8.10;99.90;;;;;;5054970;28;20186;-47
2023/12/13 05:03:28;;;;;;;7.47;2.10;;;8.10;99.90;;;;;;5055383;28;20180;-48
2023/12/13 05:05:57;;;;;;;16.73;2.40;;;8.10;99.90;;;;;;5055411;28;20712;-48
2023/12/13 05:08:22;;;;;;;20.60;2.80;;;8.00;99.90;;;;;;5055482;28;20213;-49
2023/12/13 05:10:48;;;;;;;13.27;2.63;;;8.00;99.90;;;;;;5073139;28;20200;-49
2023/12/13 05:13:14;;;;;;;16.60;2.23;;;8.00;99.90;;;;;;5055257;28;20181;-49
2023/12/13 05:15:40;;;;;;;9.30;2.50;;;7.90;99.90;;;;;;5073460;28;20180;-48
2023/12/13 05:18:09;;;;;;;8.23;1.73;;;7.90;99.90;;;;;;5073158;28;20224;-49
2023/12/13 05:20:37;;;;;;;10.47;2.43;;;7.90;99.90;;;;;;5072937;28;20219;-48
2023/12/13 05:26:25;;;;;;;8.13;2.17;;;7.80;99.90;;;;;;5073231;28;20575;-48
2023/12/13 05:28:53;;;;;;;13.47;2.27;;;7.80;99.90;;;;;;5073238;28;20196;-48
2023/12/13 05:31:23;;;;;;;11.63;2.33;;;7.80;99.90;;;;;;5073363;28;20177;-48
2023/12/13 05:33:52;;;;;;;13.00;2.93;;;7.80;99.90;;;;;;5055308;28;20176;-48
2023/12/13 05:36:20;;;;;;;14.27;2.57;;;7.80;99.90;;;;;;5073295;28;20272;-48
2023/12/13 05:38:46;;;;;;;10.97;2.43;;;7.80;99.90;;;;;;5072123;28;20247;-50
2023/12/13 05:41:12;;;;;;;10.73;2.03;;;7.80;99.90;;;;;;5055047;28;20183;-50
2023/12/13 05:43:38;;;;;;;12.10;2.50;;;7.80;99.90;;;;;;5072535;28;20317;-49
2023/12/13 05:46:10;;;;;;;15.13;2.53;;;7.80;99.90;;;;;;5073257;28;20199;-48
2023/12/13 05:48:40;;;;;;;11.03;2.47;;;7.70;99.90;;;;;;5073107;28;20160;-49
2023/12/13 05:51:06;;;;;;;13.30;2.20;;;7.70;99.90;;;;;;5055008;28;20286;-49
2023/12/13 05:53:32;;;;;;;14.37;2.37;;;7.70;99.90;;;;;;5072880;28;20256;-49
2023/12/13 05:56:05;;;;;;;13.83;3.23;;;7.70;99.90;;;;;;5072898;28;20172;-50
2023/12/13 05:58:31;;;;;;;11.77;2.70;;;7.70;99.90;;;;;;5072749;28;20168;-50
2023/12/13 06:00:57;;;;;;;10.20;1.90;;;7.60;99.90;;;;;;5055182;28;20179;-43
2023/12/13 06:03:23;;;;;;;14.07;2.60;;;7.60;99.90;;;;;;5073361;28;20647;-43
2023/12/13 06:06:15;;;;;;;13.83;2.03;;;7.60;99.90;;;;;;5076637;28;20184;-43
2023/12/13 06:08:43;;;;;;;10.03;2.00;;;7.60;99.90;;;;;;5076961;28;20627;-44
2023/12/13 06:11:09;;;;;;;14.03;2.70;;;7.60;99.90;;;;;;5076346;28;20266;-43
2023/12/13 06:16:58;;;;;;;6.93;1.87;;;7.50;99.90;;;;;;5076400;28;20244;-45
2023/12/13 06:19:26;;;;;;;12.90;2.10;;;7.50;99.90;;;;;;5076115;28;20212;-43
2023/12/13 06:21:52;;;;;;;7.80;2.00;;;7.50;99.90;;;;;;5042145;28;20227;-43
2023/12/13 06:24:18;;;;;;;15.23;2.80;;;7.50;99.90;;;;;;5076569;28;20171;-44
2023/12/13 06:26:44;;;;;;;10.23;2.03;;;7.50;99.90;;;;;;5075896;28;20221;-43
2023/12/13 06:32:16;;;;;;;6.73;2.20;;;7.50;99.90;;;;;;5076170;28;20170;-45
2023/12/13 06:34:47;;;;;;;14.70;2.47;;;7.50;99.90;;;;;;5058526;28;20273;-43
2023/12/13 06:37:12;;;;;;;13.20;2.13;;;7.50;99.90;;;;;;5075988;28;20249;-42
2023/12/13 06:39:41;;;;;;;5.70;1.63;;;7.40;99.90;;;;;;5076072;28;20291;-45
2023/12/13 06:42:16;;;;;;;10.53;2.00;;;7.50;99.90;;;;;;5058277;28;20652;-43
2023/12/13 06:48:06;;;;;;;7.17;1.50;;;7.40;99.90;;;;;;5075812;28;20235;-43
2023/12/13 06:50:32;;;;;;;11.17;2.00;;;7.40;99.90;;;;;;5075824;28;20198;-43
2023/12/13 06:53:01;;;;;;;9.00;2.50;;;7.40;99.90;;;;;;5075534;28;20176;-43
2023/12/13 06:55:28;;;;;;;7.97;2.37;;;7.40;99.90;;;;;;5075875;28;20190;-44
2023/12/13 06:58:06;;;;;;;10.90;2.23;;;7.40;99.90;;;;;;5057750;28;20207;-45
2023/12/13 07:00:32;;;;;;;11.93;2.57;;;7.40;99.90;;;;;;5057481;28;20251;-43
2023/12/13 07:02:58;;;;;;;10.33;2.23;;;7.40;99.90;;;;;;5075706;28;20222;-42
2023/12/13 07:05:23;;;;;;;11.20;2.30;;;7.40;99.90;;;;;;5057637;28;20222;-44
2023/12/13 07:07:51;;;;;;;6.67;1.57;;;7.40;99.90;;;;;;5075402;28;20672;-43
2023/12/13 07:10:17;;;;;;;14.73;2.00;;;7.40;99.90;;;;;;5075251;28;20208;-42
2023/12/13 07:16:26;;;;;;;7.80;1.83;;;7.40;99.90;;;;;;5074740;28;20199;-44
2023/12/13 07:18:51;;;;;;;11.03;2.17;;;7.40;99.90;;;;;;5074318;28;20227;-42
2023/12/13 07:21:17;;;;;;;10.27;2.00;;;7.40;99.90;;;;;;5057163;28;20179;-43
2023/12/13 07:23:43;;;;;;;8.50;2.13;;;7.40;99.90;;;;;;5075352;28;20211;-44
2023/12/13 07:26:09;;;;;;;11.40;2.27;;;7.40;99.90;;;;;;5075354;28;20187;-48
2023/12/13 07:28:37;;;;;;;9.53;1.83;;;7.40;99.90;;;;;;5075117;28;20172;-48
2023/12/13 07:31:06;;;;;;;8.27;2.10;;;7.40;99.90;;;;;;5075386;28;20176;-47
2023/12/13 07:33:37;;;;;;;10.53;2.03;;;7.40;99.90;;;;;;5056949;28;20175;-47
2023/12/13 07:36:07;;;;;;;6.10;1.83;;;7.30;99.90;;;;;;5074917;28;20169;-43
2023/12/13 07:38:33;;;;;;;10.80;1.90;;;7.40;99.90;;;;;;5056739;28;20187;-47
2023/12/13 07:40:59;;;;;;;7.00;1.73;;;7.40;99.90;;;;;;5075007;28;20766;-46
2023/12/13 07:43:26;;;;;;;14.13;2.10;;;7.40;99.90;;;;;;5075039;28;20555;-46
2023/12/13 07:45:52;;;;;;;7.10;2.07;;;7.40;99.90;;;;;;5074647;28;20228;-45
2023/12/13 07:48:28;;;;;;;15.87;2.70;;;7.40;99.90;;;;;;5074657;28;20168;-44
2023/12/13 07:50:54;;;;;;;7.50;1.63;;;7.40;99.90;;;;;;5073833;28;20206;-45
2023/12/13 07:53:27;;;;;;;10.07;1.83;;;7.40;99.90;;;;;;5056830;28;20720;-45
2023/12/13 07:55:55;;;;;;;14.93;2.07;;;7.40;99.90;;;;;;5074682;28;20624;-43
2023/12/13 07:58:21;;;;;;;17.33;2.23;;;7.40;99.90;;;;;;5074623;28;20226;-44
2023/12/13 08:01:42;;;;;;;7.40;1.83;;;7.50;99.90;;;;;;5074191;28;20211;-43
2023/12/13 08:04:09;;;;;;;12.77;2.30;;;7.50;99.90;;;;;;5074605;28;20169;-45
2023/12/13 08:06:36;;;;;;;12.53;2.03;;;7.50;99.90;;;;;;5074671;28;20288;-45
2023/12/13 08:09:09;;;;;;;13.17;2.33;;;7.50;99.90;;;;;;5074082;28;20207;-44
2023/12/13 08:11:38;;;;;;;9.07;1.90;;;7.50;99.90;;;;;;5073374;28;20257;-46
2023/12/13 08:14:04;;;;;;;10.53;1.87;;;7.50;99.90;;;;;;5074075;28;20183;-44
2023/12/13 08:16:31;;;;;;;15.03;2.80;;;7.50;99.90;;;;;;5056420;28;20258;-44
2023/12/13 08:19:43;;;;;;;10.10;1.90;;;7.60;99.90;;;;;;5056134;28;20266;-45
2023/12/13 08:22:09;;;;;;;7.90;2.30;;;7.60;99.90;;;;;;5073895;28;20184;-45
2023/12/13 08:24:35;;;;;;;20.83;2.53;;;7.60;99.90;;;;;;5074209;28;20186;-47
2023/12/13 08:27:24;;;;;;;9.20;1.53;;;7.70;99.90;;;;;;5073788;28;20187;-46
2023/12/13 08:30:17;;;;;;;12.80;2.17;;;7.70;99.90;;;;;;5055825;28;20215;-46
2023/12/13 08:32:43;;;;;;;15.30;2.67;;;7.70;99.90;;;;;;5073948;28;20191;-48
2023/12/13 08:35:15;;;;;;;9.37;2.10;;;7.80;99.90;;;;;;5073981;28;20187;-47
2023/12/13 08:37:40;;;;;;;7.97;1.60;;;7.80;99.90;;;;;;5074096;28;20178;-47
2023/12/13 08:40:08;;;;;;;9.47;1.90;;;7.80;99.90;;;;;;5055707;28;20215;-47
2023/12/13 08:42:34;;;;;;;5.60;2.20;;;7.80;99.90;;;;;;5072647;28;20199;-46
2023/12/13 08:45:00;;;;;;;13.23;1.97;;;7.80;99.90;;;;;;5073814;28;20181;-48
2023/12/13 08:47:28;;;;;;;11.83;2.00;;;7.90;99.90;;;;;;5073868;28;20198;-46
2023/12/13 08:49:54;;;;;;;17.03;2.53;;;7.90;99.90;;;;;;5068313;28;20216;-47
2023/12/13 08:52:23;;;;;;;15.80;2.40;;;7.90;99.90;;;;;;5073497;28;20183;-46
2023/12/13 08:54:49;;;;;;;17.70;2.63;;;7.90;99.90;;;;;;5073446;28;20183;-48
2023/12/13 08:57:18;;;;;;;11.13;2.23;;;8.00;99.90;;;;;;5073445;28;20668;-47
2023/12/13 08:59:43;;;;;;;6.70;1.90;;;8.10;99.90;;;;;;5073540;28;20217;-47
2023/12/13 09:02:09;;;;;;;10.63;2.47;;;8.10;99.90;;;;;;5073374;28;20633;-47
2023/12/13 09:04:36;;;;;;;14.77;1.97;;;8.10;99.90;;;;;;5073883;28;20254;-47
2023/12/13 09:07:01;;;;;;;14.47;2.30;;;8.20;99.90;;;;;;5073597;28;20218;-47
2023/12/13 09:09:38;;;;;;;16.67;2.00;;;8.20;99.90;;;;;;5073739;28;20231;-46
2023/12/13 09:12:07;;;;;;;16.73;2.10;;;8.30;99.90;;;;;;5055569;28;20206;-48
2023/12/13 09:14:33;;;;;;;18.30;2.97;;;8.30;99.90;;;;;;5073795;28;20189;-46
2023/12/13 09:17:52;;;;;;;12.20;2.10;;;8.30;99.90;;;;;;5055459;28;20204;-46
2023/12/13 09:20:20;;;;;;;11.20;2.50;;;8.40;99.90;;;;;;5072925;28;20326;-47
2023/12/13 09:23:27;;;;;;;13.27;1.87;;;8.50;99.90;;;;;;5073192;28;20254;-46
2023/12/13 09:25:54;;;;;;;11.43;2.13;;;8.60;99.90;;;;;;5073384;28;20171;-47
2023/12/13 09:28:30;;;;;;;13.07;2.13;;;8.70;99.90;;;;;;5073395;28;20214;-48
2023/12/13 09:31:03;;;;;;;11.43;2.33;;;8.80;99.90;;;;;;5073146;28;20239;-46
2023/12/13 09:33:30;;;;;;;12.33;2.77;;;8.80;99.90;;;;;;5055431;28;20183;-46
2023/12/13 09:36:01;;;;;;;13.10;2.53;;;8.80;99.90;;;;;;5072225;28;20202;-46
2023/12/13 09:38:30;;;;;;;11.23;2.10;;;8.90;99.90;;;;;;5073345;28;20212;-48
2023/12/13 09:40:56;;;;;;;10.00;2.10;;;8.90;99.90;;;;;;5075975;28;20222;-47
2023/12/13 09:50:24;;;;;;;18.23;2.00;;;8.90;99.90;;;;;;5077901;28;20255;-46
2023/12/13 09:52:50;;;;;;;10.27;1.80;;;9.00;99.90;;;;;;5071650;28;20553;-47
2023/12/13 09:55:16;;;;;;;11.73;2.77;;;9.00;99.90;;;;;;5077852;28;20706;-47
2023/12/13 09:57:42;;;;;;;14.87;2.47;;;9.00;99.90;;;;;;5077848;28;20539;-48
2023/12/13 10:00:16;;;;;;;16.37;2.40;;;9.00;99.90;;;;;;5076792;28;20222;-47
2023/12/13 10:02:42;;;;;;;13.80;2.33;;;9.00;99.90;;;;;;5059902;28;20166;-47
2023/12/13 10:05:11;;;;;;;16.13;2.30;;;9.10;99.90;;;;;;5075717;28;20195;-48
2023/12/13 10:07:38;;;;;;;13.63;2.10;;;9.10;99.90;;;;;;5076503;28;20756;-46
2023/12/13 10:10:05;;;;;;;15.27;2.23;;;9.10;99.90;;;;;;5076346;28;20570;-48
2023/12/13 10:12:32;;;;;;;12.97;2.60;;;9.10;99.90;;;;;;5076463;28;20190;-49
2023/12/13 10:15:08;;;;;;;11.73;2.33;;;9.10;99.90;;;;;;5076655;28;20274;-47
2023/12/13 10:17:38;;;;;;;18.43;2.27;;;9.20;99.90;;;;;;5059076;28;20173;-47
2023/12/13 10:20:08;;;;;;;13.87;2.70;;;9.20;99.90;;;;;;5073683;28;20242;-48
2023/12/13 10:22:43;;;;;;;12.93;2.50;;;9.20;99.90;;;;;;5076269;28;20205;-46
2023/12/13 10:25:13;;;;;;;10.30;2.60;;;9.20;99.90;;;;;;5076183;28;20659;-47
2023/12/13 10:27:41;;;;;;;18.30;3.27;;;9.20;99.90;;;;;;5076477;28;20169;-47
2023/12/13 10:30:10;;;;;;;9.07;2.60;;;9.20;99.90;;;;;;5057693;28;20642;-48
2023/12/13 10:32:36;;;;;;;15.60;2.20;;;9.30;99.90;;;;;;5076638;28;20599;-47
2023/12/13 10:35:04;;;;;;;12.83;2.40;;;9.30;99.90;;;;;;5076045;28;20541;-47
2023/12/13 10:37:34;;;;;;;19.07;2.20;;;9.30;99.90;;;;;;5058199;28;20195;-47
2023/12/13 10:40:04;;;;;;;14.30;2.40;;;9.40;99.90;;;;;;5075605;28;20618;-48
2023/12/13 10:42:31;;;;;;;12.17;2.33;;;9.40;99.90;;;;;;5057961;28;20194;-48
2023/12/13 10:45:06;;;;;;;11.07;2.53;;;9.40;99.90;;;;;;5076502;28;20185;-47
2023/12/13 10:47:48;;;;;;;16.47;2.13;;;9.50;99.90;;;;;;5042133;28;20229;-48
2023/12/13 10:50:17;;;;;;;10.83;2.27;;;9.50;99.90;;;;;;5075425;28;20568;-48
2023/12/13 10:52:46;;;;;;;10.30;2.17;;;9.60;99.90;;;;;;5069792;28;20280;-47
2023/12/13 10:55:18;;;;;;;16.83;2.33;;;9.60;99.90;;;;;;5042612;28;20199;-49
2023/12/13 10:57:44;;;;;;;12.00;2.10;;;9.70;99.90;;;;;;5073964;28;20580;-48
2023/12/13 11:00:14;;;;;;;11.13;2.00;;;9.60;99.90;;;;;;5075188;28;20266;-48
2023/12/13 11:03:00;;;;;;;13.53;2.20;;;9.70;99.90;;;;;;5075762;28;20224;-48
2023/12/13 11:05:25;;;;;;;14.00;2.23;;;9.70;99.90;;;;;;5076380;28;20202;-47
2023/12/13 11:07:54;;;;;;;13.10;2.27;;;9.80;99.90;;;;;;5075685;28;20187;-47
2023/12/13 11:10:23;;;;;;;12.53;2.33;;;9.80;99.90;;;;;;5075307;28;20221;-48
2023/12/13 11:12:50;;;;;;;13.33;2.37;;;9.80;99.90;;;;;;5075200;28;20233;-48
2023/12/13 11:15:19;;;;;;;8.20;1.80;;;9.80;99.90;;;;;;5075195;28;20179;-49
2023/12/13 11:17:55;;;;;;;14.03;2.07;;;9.80;99.90;;;;;;5075241;28;20193;-48
2023/12/13 11:20:21;;;;;;;11.07;1.83;;;9.90;99.90;;;;;;5057977;28;20298;-47
2023/12/13 11:22:49;;;;;;;11.10;2.00;;;9.90;99.90;;;;;;5075177;28;20190;-46
2023/12/13 11:25:18;;;;;;;12.63;2.20;;;9.90;99.90;;;;;;5073419;28;20658;-48
2023/12/13 11:27:55;;;;;;;7.93;1.80;;;9.90;99.90;;;;;;5075099;28;20550;-48
2023/12/13 11:30:21;;;;;;;9.73;2.03;;;9.90;99.90;;;;;;5075121;28;20220;-49
2023/12/13 11:32:48;;;;;;;12.83;2.47;;;10.00;99.90;;;;;;5075210;28;20191;-48
2023/12/13 11:35:18;;;;;;;14.57;1.87;;;10.00;99.90;;;;;;5075011;28;20187;-48
2023/12/13 11:37:53;;;;;;;9.27;1.93;;;10.10;99.90;;;;;;5074252;28;20651;-48
2023/12/13 11:40:19;;;;;;;10.77;1.70;;;10.10;99.90;;;;;;5056799;28;20297;-48
2023/12/13 11:42:51;;;;;;;9.53;1.83;;;10.20;99.90;;;;;;5074969;28;20179;-48
2023/12/13 11:45:21;;;;;;;10.47;1.83;;;10.20;99.90;;;;;;5074740;28;20183;-48
2023/12/13 11:47:49;;;;;;;13.30;1.97;;;10.20;99.90;;;;;;5074695;28;20260;-49
2023/12/13 11:50:16;;;;;;;6.77;1.77;;;10.30;99.90;;;;;;5073987;28;20212;-48
2023/12/13 11:52:44;;;;;;;9.93;2.20;;;10.30;99.90;;;;;;5055501;28;20260;-49
2023/12/13 11:55:10;;;;;;;10.93;1.87;;;10.30;99.90;;;;;;5074533;28;20179;-47
2023/12/13 11:57:39;;;;;;;10.20;1.60;;;10.30;99.90;;;;;;5074504;28;20180;-49
2023/12/13 12:00:05;;;;;;;7.83;1.77;;;10.30;99.90;;;;;;5074196;28;20261;-48
2023/12/13 12:02:31;;;;;;;13.10;2.00;;;10.30;99.90;;;;;;5073971;28;20251;-48
2023/12/13 12:05:01;;;;;;;6.73;1.33;;;10.30;99.90;;;;;;5056435;28;20274;-47
2023/12/13 12:07:30;;;;;;;11.43;1.97;;;10.30;99.90;;;;;;5040009;28;20218;-48
2023/12/13 12:09:56;;;;;;;8.37;2.07;;;10.30;99.90;;;;;;5074336;28;20694;-47
2023/12/13 12:12:29;;;;;;;11.87;2.00;;;10.30;99.90;;;;;;5074863;28;20659;-47
2023/12/13 12:14:55;;;;;;;9.37;1.73;;;10.30;99.90;;;;;;5056881;28;20241;-49
2023/12/13 12:17:20;;;;;;;17.20;2.30;;;10.40;99.90;;;;;;5074333;28;20195;-49
2023/12/13 12:19:48;;;;;;;6.13;1.50;;;10.40;99.90;;;;;;5074085;28;20215;-47
2023/12/13 12:22:19;;;;;;;9.03;2.13;;;10.40;99.90;;;;;;5074273;28;20193;-47
2023/12/13 12:24:50;;;;;;;4.80;1.80;;;10.50;99.90;;;;;;5074485;28;20175;-49
2023/12/13 12:27:19;;;;;;;8.47;1.83;;;10.50;99.90;;;;;;5056117;28;20179;-49
2023/12/13 12:29:54;;;;;;;9.77;2.20;;;10.50;99.90;;;;;;5055858;28;20678;-48
2023/12/13 12:32:20;;;;;;;13.83;2.30;;;10.50;99.90;;;;;;5074038;28;20542;-48
2023/12/13 12:34:48;;;;;;;9.00;2.27;;;10.50;99.90;;;;;;5073787;28;20180;-48
2023/12/13 12:37:17;;;;;;;7.53;1.63;;;10.50;99.90;;;;;;5039464;28;20218;-48
2023/12/13 12:39:44;;;;;;;12.70;2.73;;;10.50;99.90;;;;;;5056273;28;20290;-48
2023/12/13 12:42:09;;;;;;;10.27;2.23;;;10.50;99.90;;;;;;5073881;28;20233;-49
2023/12/13 12:44:36;;;;;;;8.50;2.37;;;10.50;99.90;;;;;;5073900;28;20294;-47
2023/12/13 12:47:03;;;;;;;13.03;1.80;;;10.60;99.90;;;;;;5055824;28;20266;-48
2023/12/13 12:49:32;;;;;;;8.70;1.70;;;10.60;99.90;;;;;;5056709;28;20215;-43
2023/12/13 12:51:58;;;;;;;10.30;1.70;;;10.70;99.90;;;;;;5073921;28;20210;-43
2023/12/13 12:54:24;;;;;;;12.57;2.37;;;10.70;99.90;;;;;;5073809;28;20680;-45
2023/12/13 12:56:52;;;;;;;12.93;2.20;;;10.80;99.90;;;;;;5073825;28;20523;-45
2023/12/13 12:59:18;;;;;;;9.20;2.27;;;10.80;99.90;;;;;;5073348;28;20215;-48
2023/12/13 13:01:45;;;;;;;5.17;1.67;;;10.80;99.90;;;;;;5055619;28;20230;-48
2023/12/13 13:04:14;;;;;;;6.40;1.57;;;10.80;99.90;;;;;;5055585;28;20180;-48
2023/12/13 13:06:45;;;;;;;5.60;1.20;;;10.80;99.90;;;;;;5073397;28;20262;-48
2023/12/13 13:09:13;;;;;;;7.73;1.53;;;10.80;99.90;;;;;;5073943;28;20205;-48
2023/12/13 13:11:39;;;;;;;5.63;1.40;;;10.80;99.90;;;;;;5073251;28;20665;-47
2023/12/13 13:14:07;;;;;;;4.13;1.30;;;10.80;99.90;;;;;;5072526;28;20210;-48
2023/12/13 13:16:37;;;;;;;6.77;1.30;;;10.70;99.90;;;;;;5073849;28;20186;-47
2023/12/13 13:19:05;;;;;;;7.13;1.33;;;10.70;99.90;;;;;;5055434;28;20239;-48
2023/12/13 13:21:40;;;;;;;5.70;1.33;;;10.60;99.90;;;;;;5073261;28;20543;-47
2023/12/13 13:24:05;;;;;;;7.30;1.30;;;10.60;99.90;;;;;;5073118;28;20175;-47
2023/12/13 13:26:31;;;;;;;5.00;1.40;;;10.60;99.90;;;;;;5073108;28;20179;-48